Time;durP1;ratioP1;P1;durP2;ratioP2;P2;SDS_P1;SDS_P2;PMS_P1;PMS_P2;Temp;Humidity;BMP_temperature;BMP_pressure;BME280_temperature;BME280_humidity;BME280_pressure;Samples;Min_cycle;Max_cycle;Signal;HPM_P1;HPM_P2
2024/01/27 00:00:22;;;;;;;3.72;1.23;;;;;;;;;;5002332;28;20121;-85
2024/01/27 00:02:48;;;;;;;3.67;1.05;;;;;;;;;;5006815;28;20038;-84
2024/01/27 00:05:13;;;;;;;1.73;0.90;;;;;;;;;;5016030;28;20061;-85
2024/01/27 00:07:40;;;;;;;5.22;1.15;;;;;;;;;;5002201;28;20114;-84
2024/01/27 00:10:06;;;;;;;2.70;1.00;;;;;;;;;;5003127;28;20086;-85
2024/01/27 00:12:31;;;;;;;4.00;0.98;;;;;;;;;;5005272;28;20034;-85
2024/01/27 00:14:57;;;;;;;5.82;1.10;;;;;;;;;;5013119;28;20041;-86
2024/01/27 00:17:25;;;;;;;3.78;1.00;;;;;;;;;;5005194;28;20098;-86
2024/01/27 00:19:53;;;;;;;5.00;1.17;;;;;;;;;;5004597;28;20045;-84
2024/01/27 00:22:22;;;;;;;1.85;0.88;;;;;;;;;;5007238;28;20531;-84
2024/01/27 00:24:48;;;;;;;3.55;1.20;;;;;;;;;;5005412;28;20037;-84
2024/01/27 00:27:13;;;;;;;5.82;1.30;;;;;;;;;;4997396;28;20037;-82
2024/01/27 00:29:39;;;;;;;5.45;1.40;;;;;;;;;;5003864;28;20066;-85
2024/01/27 00:32:04;;;;;;;3.38;1.20;;;;;;;;;;5004238;28;20095;-85
2024/01/27 00:34:30;;;;;;;3.90;1.30;;;;;;;;;;5005875;28;20038;-85
2024/01/27 00:36:55;;;;;;;3.97;1.17;;;;;;;;;;4996196;28;20400;-85
2024/01/27 00:39:22;;;;;;;4.65;1.33;;;;;;;;;;5002566;28;20081;-85
2024/01/27 00:41:48;;;;;;;4.47;1.20;;;;;;;;;;5005715;28;20508;-83
2024/01/27 00:44:13;;;;;;;4.57;1.20;;;;;;;;;;5008451;28;20022;-85
2024/01/27 00:46:38;;;;;;;3.53;0.98;;;;;;;;;;5008957;28;20043;-84
2024/01/27 00:49:04;;;;;;;5.05;1.60;;;;;;;;;;5019559;28;20026;-84
2024/01/27 00:51:30;;;;;;;3.58;1.40;;;;;;;;;;5014645;28;20090;-86
2024/01/27 00:53:55;;;;;;;7.10;1.50;;;;;;;;;;5001627;28;20095;-85
2024/01/27 00:56:21;;;;;;;5.78;1.65;;;;;;;;;;5009293;28;20061;-84
2024/01/27 00:58:46;;;;;;;6.50;1.40;;;;;;;;;;5009463;28;20072;-83
2024/01/27 01:01:12;;;;;;;5.07;1.20;;;;;;;;;;5011288;28;20412;-83
2024/01/27 01:03:37;;;;;;;2.85;1.02;;;;;;;;;;5009459;28;20034;-85
2024/01/27 01:06:03;;;;;;;2.83;1.20;;;;;;;;;;5010203;28;20052;-84
2024/01/27 01:08:28;;;;;;;3.33;1.20;;;;;;;;;;5005940;28;20035;-86
2024/01/27 01:10:54;;;;;;;2.80;1.13;;;;;;;;;;5007765;28;20397;-85
2024/01/27 01:13:19;;;;;;;3.42;1.42;;;;;;;;;;5009326;28;20407;-87
2024/01/27 01:15:45;;;;;;;2.00;1.10;;;;;;;;;;5008500;28;20014;-83
2024/01/27 01:18:10;;;;;;;2.95;0.98;;;;;;;;;;5024245;28;20385;-85
2024/01/27 01:20:36;;;;;;;2.38;1.20;;;;;;;;;;5015392;28;20030;-85
2024/01/27 01:23:01;;;;;;;2.28;1.00;;;;;;;;;;5010173;28;20035;-85
2024/01/27 01:25:27;;;;;;;2.50;0.90;;;;;;;;;;5009579;28;20053;-86
2024/01/27 01:27:52;;;;;;;4.00;1.10;;;;;;;;;;5009848;28;20034;-87
2024/01/27 01:30:18;;;;;;;4.80;1.00;;;;;;;;;;5007431;28;20022;-86
2024/01/27 01:32:43;;;;;;;3.20;0.95;;;;;;;;;;5005221;28;20041;-84
2024/01/27 01:35:12;;;;;;;1.92;0.90;;;;;;;;;;5009274;28;20089;-86
2024/01/27 01:37:38;;;;;;;1.95;1.00;;;;;;;;;;5008506;28;20034;-85
2024/01/27 01:40:04;;;;;;;3.13;1.10;;;;;;;;;;5007675;28;20491;-85
2024/01/27 01:42:30;;;;;;;5.05;1.48;;;;;;;;;;5007710;28;20041;-85
2024/01/27 01:44:55;;;;;;;4.28;1.20;;;;;;;;;;5009417;28;20043;-86
2024/01/27 01:47:24;;;;;;;5.50;1.10;;;;;;;;;;5008385;28;20072;-85
2024/01/27 01:49:50;;;;;;;3.25;0.95;;;;;;;;;;5005480;28;20092;-87
2024/01/27 01:52:19;;;;;;;3.60;1.13;;;;;;;;;;5017200;28;20014;-86
2024/01/27 01:54:49;;;;;;;3.65;1.15;;;;;;;;;;5022203;28;20030;-84
2024/01/27 01:57:15;;;;;;;3.95;1.10;;;;;;;;;;5016389;28;20081;-85
2024/01/27 01:59:41;;;;;;;3.58;1.10;;;;;;;;;;5007902;28;20031;-84
2024/01/27 02:02:08;;;;;;;3.17;1.02;;;;;;;;;;5008207;28;20054;-85
2024/01/27 02:04:45;;;;;;;2.13;0.95;;;;;;;;;;5015367;28;20086;-84
2024/01/27 02:07:11;;;;;;;4.63;1.30;;;;;;;;;;5007894;28;20030;-85
2024/01/27 02:09:37;;;;;;;3.13;1.10;;;;;;;;;;5008877;28;20034;-86
2024/01/27 02:12:02;;;;;;;3.70;1.00;;;;;;;;;;5007806;28;20049;-86
2024/01/27 02:14:28;;;;;;;3.70;1.00;;;;;;;;;;5004874;28;20058;-84
2024/01/27 02:16:54;;;;;;;3.38;1.30;;;;;;;;;;5006225;28;20040;-83
2024/01/27 02:19:19;;;;;;;6.05;1.23;;;;;;;;;;5007547;28;20034;-85
2024/01/27 02:21:45;;;;;;;3.58;1.10;;;;;;;;;;5007575;28;20069;-84
2024/01/27 02:24:10;;;;;;;3.35;0.98;;;;;;;;;;5008679;28;20074;-86
2024/01/27 02:26:36;;;;;;;2.10;0.90;;;;;;;;;;5008336;28;20058;-84
2024/01/27 02:29:01;;;;;;;4.03;1.17;;;;;;;;;;5013892;28;20023;-85
2024/01/27 02:31:27;;;;;;;4.35;1.00;;;;;;;;;;5008563;28;20034;-85
2024/01/27 02:33:52;;;;;;;4.50;1.10;;;;;;;;;;5007195;28;20041;-82
2024/01/27 02:36:18;;;;;;;4.65;1.50;;;;;;;;;;5005348;28;20034;-83
2024/01/27 02:38:43;;;;;;;4.00;1.20;;;;;;;;;;5004982;28;20035;-83
2024/01/27 02:41:11;;;;;;;6.10;1.10;;;;;;;;;;5009565;28;20129;-84
2024/01/27 02:43:37;;;;;;;3.08;1.20;;;;;;;;;;5005094;28;20038;-85
2024/01/27 02:46:03;;;;;;;3.70;1.00;;;;;;;;;;5008536;28;20038;-84
2024/01/27 02:48:28;;;;;;;5.05;1.13;;;;;;;;;;4997345;28;20097;-85
2024/01/27 02:50:54;;;;;;;5.60;1.27;;;;;;;;;;5007609;28;20038;-84
2024/01/27 02:53:19;;;;;;;3.63;1.10;;;;;;;;;;5004240;28;20057;-85
2024/01/27 02:55:45;;;;;;;4.10;1.15;;;;;;;;;;5005315;28;20053;-83
2024/01/27 02:58:11;;;;;;;3.42;1.02;;;;;;;;;;5007171;28;20026;-84
2024/01/27 03:00:36;;;;;;;2.80;1.05;;;;;;;;;;5006616;28;20542;-83
2024/01/27 03:03:02;;;;;;;5.85;1.30;;;;;;;;;;5015195;28;20034;-85
2024/01/27 03:05:27;;;;;;;3.13;1.00;;;;;;;;;;5020488;28;20023;-85
2024/01/27 03:07:53;;;;;;;7.35;1.48;;;;;;;;;;5007227;28;20022;-83
2024/01/27 03:10:18;;;;;;;6.43;1.20;;;;;;;;;;5007661;28;20436;-85
2024/01/27 03:12:44;;;;;;;3.28;1.10;;;;;;;;;;5007447;28;20042;-84
2024/01/27 03:15:09;;;;;;;5.47;1.05;;;;;;;;;;4997305;28;20054;-85
2024/01/27 03:17:35;;;;;;;5.35;1.10;;;;;;;;;;4989088;28;20389;-84
2024/01/27 03:20:00;;;;;;;5.47;1.17;;;;;;;;;;5004539;28;20030;-85
2024/01/27 03:22:26;;;;;;;5.38;1.02;;;;;;;;;;5006192;28;20054;-86
2024/01/27 03:24:53;;;;;;;4.72;1.02;;;;;;;;;;4997854;28;20061;-86
2024/01/27 03:27:18;;;;;;;4.65;1.20;;;;;;;;;;5006488;28;20034;-83
2024/01/27 03:29:43;;;;;;;4.47;1.30;;;;;;;;;;5014145;28;20038;-84
2024/01/27 03:32:09;;;;;;;4.35;1.20;;;;;;;;;;5006185;28;20097;-85
2024/01/27 03:34:34;;;;;;;3.95;1.35;;;;;;;;;;5003889;28;20034;-84
2024/01/27 03:37:00;;;;;;;4.60;1.20;;;;;;;;;;5005537;28;20042;-85
2024/01/27 03:39:25;;;;;;;6.45;1.27;;;;;;;;;;5004640;28;20060;-86
2024/01/27 03:41:51;;;;;;;4.20;1.10;;;;;;;;;;5005506;28;20030;-86
2024/01/27 03:44:16;;;;;;;5.13;1.27;;;;;;;;;;5013141;28;20088;-83
2024/01/27 03:46:42;;;;;;;5.13;1.40;;;;;;;;;;5004200;28;20038;-85
2024/01/27 03:49:07;;;;;;;5.63;1.50;;;;;;;;;;5006638;28;20030;-85
2024/01/27 03:51:33;;;;;;;4.88;1.30;;;;;;;;;;5005666;28;20042;-84
2024/01/27 03:53:58;;;;;;;2.22;1.05;;;;;;;;;;5022180;28;20080;-85
2024/01/27 03:56:23;;;;;;;4.47;1.30;;;;;;;;;;5002290;28;20102;-87
2024/01/27 03:58:49;;;;;;;4.03;1.45;;;;;;;;;;4996366;28;20031;-86
2024/01/27 04:01:14;;;;;;;5.97;1.35;;;;;;;;;;5004030;28;20069;-86
2024/01/27 04:03:40;;;;;;;3.63;1.27;;;;;;;;;;5014206;28;20106;-85
2024/01/27 04:06:05;;;;;;;3.97;1.50;;;;;;;;;;5004912;28;20029;-84
2024/01/27 04:08:31;;;;;;;4.45;1.10;;;;;;;;;;5004477;28;20041;-85
2024/01/27 04:10:57;;;;;;;3.53;1.20;;;;;;;;;;5006188;28;20041;-85
2024/01/27 04:13:23;;;;;;;5.38;1.27;;;;;;;;;;5006568;28;20102;-86
2024/01/27 04:15:51;;;;;;;5.03;1.42;;;;;;;;;;5000312;28;20023;-85
2024/01/27 04:18:16;;;;;;;6.50;1.42;;;;;;;;;;5003362;28;20026;-86
2024/01/27 04:20:42;;;;;;;4.68;1.30;;;;;;;;;;5004723;28;20291;-83
2024/01/27 04:23:08;;;;;;;5.70;1.50;;;;;;;;;;5005278;28;20034;-84
2024/01/27 04:25:33;;;;;;;4.95;1.40;;;;;;;;;;5004245;28;20038;-85
2024/01/27 04:27:59;;;;;;;6.55;1.50;;;;;;;;;;5004199;28;20026;-85
2024/01/27 04:30:24;;;;;;;7.95;1.42;;;;;;;;;;5004862;28;20042;-84
2024/01/27 04:32:51;;;;;;;5.45;1.25;;;;;;;;;;5005728;28;20035;-85
2024/01/27 04:35:17;;;;;;;4.10;1.35;;;;;;;;;;4994466;28;20034;-85
2024/01/27 04:37:44;;;;;;;3.88;1.40;;;;;;;;;;5013731;28;20100;-84
2024/01/27 04:40:10;;;;;;;5.78;1.10;;;;;;;;;;4997959;28;20038;-83
2024/01/27 04:42:39;;;;;;;6.90;1.30;;;;;;;;;;5003253;28;20073;-85
2024/01/27 04:45:06;;;;;;;3.30;1.20;;;;;;;;;;5006056;28;20053;-84
2024/01/27 04:47:31;;;;;;;4.25;1.20;;;;;;;;;;5004487;28;20047;-84
2024/01/27 04:49:57;;;;;;;5.97;1.38;;;;;;;;;;5005208;28;20038;-84
2024/01/27 04:52:23;;;;;;;2.28;1.00;;;;;;;;;;5006210;28;20018;-86
2024/01/27 04:54:49;;;;;;;4.18;1.27;;;;;;;;;;5005063;28;20038;-86
2024/01/27 04:57:14;;;;;;;4.38;1.20;;;;;;;;;;5006696;28;20108;-86
2024/01/27 04:59:40;;;;;;;4.30;1.23;;;;;;;;;;5003779;28;20132;-85
2024/01/27 05:02:06;;;;;;;2.95;1.10;;;;;;;;;;5012480;28;20076;-83
2024/01/27 05:04:32;;;;;;;5.30;1.52;;;;;;;;;;5003786;28;20444;-85
2024/01/27 05:06:57;;;;;;;5.57;1.30;;;;;;;;;;5006292;28;20049;-84
2024/01/27 05:09:23;;;;;;;3.72;1.20;;;;;;;;;;5004107;28;20042;-85
2024/01/27 05:11:51;;;;;;;5.72;1.42;;;;;;;;;;5005403;28;20089;-87
2024/01/27 05:14:17;;;;;;;5.35;1.27;;;;;;;;;;5005677;28;20122;-86
2024/01/27 05:16:42;;;;;;;4.10;1.23;;;;;;;;;;5005945;28;20400;-84
2024/01/27 05:19:07;;;;;;;4.18;1.10;;;;;;;;;;4999813;28;20034;-84
2024/01/27 05:21:33;;;;;;;7.78;1.40;;;;;;;;;;5001639;28;20026;-83
2024/01/27 05:23:58;;;;;;;4.47;1.17;;;;;;;;;;5005363;28;20061;-86
2024/01/27 05:26:24;;;;;;;4.03;1.48;;;;;;;;;;5004470;28;20034;-84
2024/01/27 05:28:49;;;;;;;4.75;1.40;;;;;;;;;;5005979;28;20015;-84
2024/01/27 05:31:15;;;;;;;5.63;1.13;;;;;;;;;;5014973;28;20065;-87
2024/01/27 05:33:42;;;;;;;3.55;1.10;;;;;;;;;;5008775;28;20049;-86
2024/01/27 05:36:08;;;;;;;7.28;1.60;;;;;;;;;;5009923;28;20031;-84
2024/01/27 05:38:33;;;;;;;2.97;1.20;;;;;;;;;;5007292;28;20099;-83
2024/01/27 05:41:03;;;;;;;5.38;1.17;;;;;;;;;;4998289;28;20034;-84
2024/01/27 05:43:28;;;;;;;9.75;3.00;;;;;;;;;;5008377;28;20034;-84
2024/01/27 05:45:55;;;;;;;3.65;1.50;;;;;;;;;;5008866;28;20040;-84
2024/01/27 05:48:20;;;;;;;7.60;1.35;;;;;;;;;;5009434;28;20044;-85
2024/01/27 05:50:56;;;;;;;4.35;1.40;;;;;;;;;;5006825;28;20050;-84
2024/01/27 05:53:22;;;;;;;2.90;1.10;;;;;;;;;;5016013;28;20461;-87
2024/01/27 05:55:47;;;;;;;5.60;1.60;;;;;;;;;;5008964;28;20041;-84
2024/01/27 05:58:13;;;;;;;5.40;1.55;;;;;;;;;;5010107;28;20031;-83
2024/01/27 06:00:38;;;;;;;6.70;1.52;;;;;;;;;;5009730;28;20030;-84
2024/01/27 06:03:04;;;;;;;3.60;1.25;;;;;;;;;;5007021;28;20027;-86
2024/01/27 06:05:29;;;;;;;7.03;1.25;;;;;;;;;;5008988;28;20112;-85
2024/01/27 06:07:55;;;;;;;5.78;1.33;;;;;;;;;;5009105;28;20038;-86
2024/01/27 06:10:21;;;;;;;7.75;1.40;;;;;;;;;;5009741;28;20097;-87
2024/01/27 06:12:46;;;;;;;5.82;1.30;;;;;;;;;;5007848;28;20041;-85
2024/01/27 06:15:12;;;;;;;4.88;1.70;;;;;;;;;;5009348;28;20033;-84
2024/01/27 06:17:38;;;;;;;6.97;1.70;;;;;;;;;;5009109;28;20057;-85
2024/01/27 06:20:04;;;;;;;6.38;1.70;;;;;;;;;;5009567;28;20030;-86
2024/01/27 06:22:31;;;;;;;5.93;1.55;;;;;;;;;;5006784;28;20035;-84
2024/01/27 06:24:57;;;;;;;8.27;1.40;;;;;;;;;;5007610;28;20061;-85
2024/01/27 06:27:22;;;;;;;3.38;1.52;;;;;;;;;;5008888;28;20034;-85
2024/01/27 06:29:48;;;;;;;8.13;1.55;;;;;;;;;;5008386;28;20050;-85
2024/01/27 06:32:13;;;;;;;6.43;1.60;;;;;;;;;;5007882;28;20034;-84
2024/01/27 06:34:39;;;;;;;8.93;1.70;;;;;;;;;;5002424;28;20078;-85
2024/01/27 06:37:04;;;;;;;4.22;1.58;;;;;;;;;;5009344;28;20053;-84
2024/01/27 06:39:30;;;;;;;3.78;1.13;;;;;;;;;;5009365;28;20038;-84
2024/01/27 06:41:55;;;;;;;8.80;1.40;;;;;;;;;;5008932;28;20030;-85
2024/01/27 06:44:21;;;;;;;5.32;1.50;;;;;;;;;;4997335;28;20045;-85
2024/01/27 06:46:49;;;;;;;4.55;1.23;;;;;;;;;;5006317;28;20045;-85
2024/01/27 06:49:16;;;;;;;5.03;1.20;;;;;;;;;;5006292;28;20037;-86
2024/01/27 06:51:43;;;;;;;4.60;1.20;;;;;;;;;;5006605;28;20119;-85
2024/01/27 06:54:08;;;;;;;3.05;1.25;;;;;;;;;;5000090;28;20033;-84
2024/01/27 06:56:34;;;;;;;3.83;1.23;;;;;;;;;;5006116;28;20026;-86
2024/01/27 06:58:59;;;;;;;4.47;1.33;;;;;;;;;;5000382;28;20069;-84
2024/01/27 07:01:25;;;;;;;4.75;1.38;;;;;;;;;;5008558;28;20038;-83
2024/01/27 07:03:50;;;;;;;8.95;1.38;;;;;;;;;;5007833;28;20496;-84
2024/01/27 07:06:16;;;;;;;4.95;1.58;;;;;;;;;;5005234;28;20118;-86
2024/01/27 07:08:41;;;;;;;3.20;1.30;;;;;;;;;;5005683;28;20035;-84
2024/01/27 07:11:07;;;;;;;7.75;2.88;;;;;;;;;;5016613;28;20034;-83
2024/01/27 07:13:33;;;;;;;21.10;9.93;;;;;;;;;;5005436;28;20054;-83
2024/01/27 07:15:59;;;;;;;28.15;14.00;;;;;;;;;;5003575;28;20058;-84
2024/01/27 07:18:25;;;;;;;19.52;8.85;;;;;;;;;;5003538;28;20026;-85
2024/01/27 07:20:51;;;;;;;12.73;5.65;;;;;;;;;;5007354;28;20118;-84
2024/01/27 07:23:17;;;;;;;9.68;4.40;;;;;;;;;;5007666;28;20766;-85
2024/01/27 07:25:45;;;;;;;7.70;3.80;;;;;;;;;;4999297;28;20035;-86
2024/01/27 07:28:10;;;;;;;18.70;9.38;;;;;;;;;;5002334;28;20030;-83
2024/01/27 07:30:36;;;;;;;12.68;7.32;;;;;;;;;;5004243;28;20031;-85
2024/01/27 07:33:02;;;;;;;13.85;6.07;;;;;;;;;;5005527;28;20113;-85
2024/01/27 07:35:27;;;;;;;10.60;3.50;;;;;;;;;;5003334;28;20034;-85
2024/01/27 07:37:53;;;;;;;26.92;13.73;;;;;;;;;;5002529;28;20034;-85
2024/01/27 07:40:19;;;;;;;25.50;14.55;;;;;;;;;;5004567;28;20038;-86
2024/01/27 07:42:44;;;;;;;11.50;5.03;;;;;;;;;;5004084;28;20058;-87
2024/01/27 07:45:10;;;;;;;19.77;9.73;;;;;;;;;;5003882;28;20030;-84
2024/01/27 07:47:35;;;;;;;12.43;6.30;;;;;;;;;;5000332;28;20045;-86
2024/01/27 07:50:01;;;;;;;10.63;4.15;;;;;;;;;;5004923;28;20104;-84
2024/01/27 07:52:26;;;;;;;11.70;5.50;;;;;;;;;;5003535;28;20049;-85
2024/01/27 07:54:52;;;;;;;6.55;2.60;;;;;;;;;;5008749;28;20061;-86
2024/01/27 07:57:18;;;;;;;14.15;7.15;;;;;;;;;;5003687;28;20019;-86
2024/01/27 07:59:43;;;;;;;12.32;5.40;;;;;;;;;;4999406;28;20033;-87
2024/01/27 08:02:09;;;;;;;8.93;2.78;;;;;;;;;;4997333;28;20045;-85
2024/01/27 08:04:34;;;;;;;10.48;4.45;;;;;;;;;;5005283;28;20680;-84
2024/01/27 08:07:05;;;;;;;15.82;4.35;;;;;;;;;;4997339;28;20473;-84
2024/01/27 08:09:31;;;;;;;7.32;3.05;;;;;;;;;;4998132;28;20073;-83
2024/01/27 08:11:57;;;;;;;9.50;4.93;;;;;;;;;;5013425;28;20038;-84
2024/01/27 08:14:22;;;;;;;16.13;8.00;;;;;;;;;;5003502;28;20030;-86
2024/01/27 08:16:48;;;;;;;9.50;4.28;;;;;;;;;;5002563;28;20023;-84
2024/01/27 08:19:19;;;;;;;10.70;2.20;;;;;;;;;;4997854;28;20031;-85
2024/01/27 08:21:46;;;;;;;6.65;3.47;;;;;;;;;;4991756;28;20137;-86
2024/01/27 08:24:12;;;;;;;17.38;6.40;;;;;;;;;;5003660;28;20560;-83
2024/01/27 08:26:38;;;;;;;5.80;2.20;;;;;;;;;;5002141;28;20038;-83
2024/01/27 08:29:03;;;;;;;7.30;3.17;;;;;;;;;;5002269;28;20065;-84
2024/01/27 08:31:29;;;;;;;11.35;3.95;;;;;;;;;;5003360;28;20100;-84
2024/01/27 08:33:54;;;;;;;13.23;3.78;;;;;;;;;;5003216;28;20046;-85
2024/01/27 08:36:20;;;;;;;13.45;3.08;;;;;;;;;;5006035;28;20015;-86
2024/01/27 08:38:45;;;;;;;10.90;2.28;;;;;;;;;;5004071;28;20121;-86
2024/01/27 08:41:11;;;;;;;7.35;2.53;;;;;;;;;;5004566;28;20030;-83
2024/01/27 08:43:37;;;;;;;8.48;2.60;;;;;;;;;;5003342;28;20399;-84
2024/01/27 08:46:03;;;;;;;9.95;3.03;;;;;;;;;;5001326;28;20541;-84
2024/01/27 08:48:28;;;;;;;7.45;2.35;;;;;;;;;;5003893;28;20043;-83
2024/01/27 08:50:54;;;;;;;14.27;4.85;;;;;;;;;;5001999;28;20034;-85
2024/01/27 08:53:19;;;;;;;6.60;1.95;;;;;;;;;;5002152;28;20026;-85
2024/01/27 08:55:45;;;;;;;10.50;2.90;;;;;;;;;;5010020;28;20153;-85
2024/01/27 08:58:10;;;;;;;7.55;2.85;;;;;;;;;;5001032;28;20034;-85
2024/01/27 09:00:36;;;;;;;8.80;1.80;;;;;;;;;;5012351;28;20042;-85
2024/01/27 09:03:02;;;;;;;7.40;1.85;;;;;;;;;;5006568;28;20038;-85
2024/01/27 09:05:28;;;;;;;7.53;1.83;;;;;;;;;;5009317;28;20054;-85
2024/01/27 09:07:53;;;;;;;5.43;1.70;;;;;;;;;;5011327;28;20049;-84
2024/01/27 09:10:19;;;;;;;7.28;1.90;;;;;;;;;;5012094;28;20141;-85
2024/01/27 09:12:44;;;;;;;4.38;1.50;;;;;;;;;;5007064;28;20034;-86
2024/01/27 09:15:10;;;;;;;10.90;1.65;;;;;;;;;;5007505;28;20481;-85
2024/01/27 09:17:36;;;;;;;7.68;1.70;;;;;;;;;;5003032;28;20223;-85
2024/01/27 09:20:02;;;;;;;7.88;1.73;;;;;;;;;;5009312;28;20026;-86
2024/01/27 09:22:28;;;;;;;6.95;1.75;;;;;;;;;;5006719;28;20176;-85
2024/01/27 09:24:54;;;;;;;7.20;1.75;;;;;;;;;;5001397;28;20031;-85
2024/01/27 09:27:20;;;;;;;7.07;2.20;;;;;;;;;;5025448;28;20022;-85
2024/01/27 09:29:46;;;;;;;6.03;1.98;;;;;;;;;;5007976;28;20044;-85
2024/01/27 09:32:11;;;;;;;8.45;2.05;;;;;;;;;;5004919;28;20022;-86
2024/01/27 09:34:37;;;;;;;6.60;2.45;;;;;;;;;;5005519;28;20057;-86
2024/01/27 09:37:02;;;;;;;7.80;3.05;;;;;;;;;;5008259;28;20018;-85
2024/01/27 09:39:28;;;;;;;7.55;1.80;;;;;;;;;;5004923;28;20105;-86
2024/01/27 09:41:55;;;;;;;6.30;2.17;;;;;;;;;;5006515;28;20026;-85
2024/01/27 09:44:21;;;;;;;11.23;3.58;;;;;;;;;;4993427;28;20035;-85
2024/01/27 09:46:50;;;;;;;8.82;2.10;;;;;;;;;;5008132;28;20102;-86
2024/01/27 09:49:15;;;;;;;8.40;2.60;;;;;;;;;;5005702;28;20122;-86
2024/01/27 09:51:41;;;;;;;6.13;2.28;;;;;;;;;;5005561;28;20034;-84
2024/01/27 09:54:07;;;;;;;8.35;1.88;;;;;;;;;;5005409;28;20041;-84
2024/01/27 09:56:33;;;;;;;7.65;2.17;;;;;;;;;;5006626;28;20409;-84
2024/01/27 09:59:00;;;;;;;5.82;2.00;;;;;;;;;;5006459;28;20034;-85
2024/01/27 10:01:28;;;;;;;7.00;2.95;;;;;;;;;;5005170;28;20381;-84
2024/01/27 10:03:54;;;;;;;7.03;2.10;;;;;;;;;;5006799;28;20137;-86
2024/01/27 10:06:21;;;;;;;9.00;2.20;;;;;;;;;;5005641;28;20041;-85
2024/01/27 10:08:56;;;;;;;9.70;2.53;;;;;;;;;;5008525;28;20030;-83
2024/01/27 10:11:23;;;;;;;8.77;2.00;;;;;;;;;;5005725;28;20034;-85
2024/01/27 10:14:04;;;;;;;7.38;1.95;;;;;;;;;;5006413;28;20035;-86
2024/01/27 10:16:40;;;;;;;8.40;2.92;;;;;;;;;;4997223;28;20046;-86
2024/01/27 10:19:05;;;;;;;7.13;2.35;;;;;;;;;;5002699;28;20112;-84
2024/01/27 10:21:31;;;;;;;8.48;2.13;;;;;;;;;;5003992;28;20037;-86
2024/01/27 10:23:56;;;;;;;9.43;2.65;;;;;;;;;;5013974;28;20030;-84
2024/01/27 10:26:22;;;;;;;5.80;2.17;;;;;;;;;;5006194;28;20090;-83
2024/01/27 10:28:57;;;;;;;4.85;2.25;;;;;;;;;;5006644;28;20056;-84
2024/01/27 10:31:27;;;;;;;13.90;2.17;;;;;;;;;;5003157;28;20030;-82
2024/01/27 10:33:53;;;;;;;8.48;2.30;;;;;;;;;;4995572;28;20031;-83
2024/01/27 10:36:19;;;;;;;8.98;2.08;;;;;;;;;;5005032;28;20026;-86
2024/01/27 10:38:45;;;;;;;13.30;3.80;;;;;;;;;;5006585;28;20022;-85
2024/01/27 10:41:10;;;;;;;6.82;1.98;;;;;;;;;;5006772;28;20125;-85
2024/01/27 10:43:37;;;;;;;8.60;2.35;;;;;;;;;;5005555;28;20030;-85
2024/01/27 10:46:07;;;;;;;12.00;2.20;;;;;;;;;;5006357;28;20125;-84
2024/01/27 10:48:36;;;;;;;9.13;1.95;;;;;;;;;;5005786;28;20030;-83
2024/01/27 10:51:10;;;;;;;8.07;1.98;;;;;;;;;;4997739;28;20125;-85
2024/01/27 10:53:37;;;;;;;6.38;1.90;;;;;;;;;;5005829;28;20043;-86
2024/01/27 10:56:08;;;;;;;8.80;2.20;;;;;;;;;;5004960;28;20026;-84
2024/01/27 10:58:40;;;;;;;6.70;2.22;;;;;;;;;;5006373;28;20112;-85
2024/01/27 11:01:11;;;;;;;8.88;2.30;;;;;;;;;;5004208;28;20037;-85
2024/01/27 11:03:41;;;;;;;7.10;2.08;;;;;;;;;;5005535;28;20035;-85
2024/01/27 11:06:07;;;;;;;5.03;2.00;;;;;;;;;;5009875;28;20596;-85
2024/01/27 11:08:38;;;;;;;9.90;2.30;;;;;;;;;;5009491;28;20065;-84
2024/01/27 11:11:03;;;;;;;8.57;2.80;;;;;;;;;;5009212;28;20038;-85
2024/01/27 11:13:33;;;;;;;10.65;2.40;;;;;;;;;;5004970;28;20041;-85
2024/01/27 11:15:59;;;;;;;12.00;3.78;;;;;;;;;;5006989;28;20049;-85
2024/01/27 11:18:27;;;;;;;7.47;2.33;;;;;;;;;;5003153;28;20050;-86
2024/01/27 11:20:53;;;;;;;8.68;2.08;;;;;;;;;;5010147;28;20038;-87
2024/01/27 11:23:19;;;;;;;6.88;2.00;;;;;;;;;;5009568;28;20034;-84
2024/01/27 11:25:45;;;;;;;8.63;2.10;;;;;;;;;;5001403;28;20041;-88
2024/01/27 11:28:15;;;;;;;8.18;2.03;;;;;;;;;;5006150;28;20098;-87
2024/01/27 11:30:46;;;;;;;6.82;2.50;;;;;;;;;;5006025;28;20038;-85
2024/01/27 11:33:11;;;;;;;5.32;2.20;;;;;;;;;;5006970;28;20034;-86
2024/01/27 11:35:37;;;;;;;7.07;2.10;;;;;;;;;;5021559;28;20023;-85
2024/01/27 11:38:02;;;;;;;6.03;2.05;;;;;;;;;;5003698;28;20041;-84
2024/01/27 11:40:28;;;;;;;6.32;2.17;;;;;;;;;;5007202;28;20069;-84
2024/01/27 11:42:58;;;;;;;8.82;2.33;;;;;;;;;;5007556;28;20038;-84
2024/01/27 11:45:23;;;;;;;8.18;2.10;;;;;;;;;;5006038;28;20459;-82
2024/01/27 11:47:49;;;;;;;5.88;2.05;;;;;;;;;;5002190;28;20029;-84
2024/01/27 11:50:17;;;;;;;8.30;2.55;;;;;;;;;;5006423;28;20069;-85
2024/01/27 11:52:43;;;;;;;9.82;2.22;;;;;;;;;;5007166;28;20026;-86
2024/01/27 11:55:09;;;;;;;8.45;1.98;;;;;;;;;;5016918;28;20040;-83
2024/01/27 11:57:34;;;;;;;9.55;2.40;;;;;;;;;;4992393;28;20042;-82
2024/01/27 12:00:00;;;;;;;6.78;2.42;;;;;;;;;;5002080;28;20022;-86
2024/01/27 12:02:25;;;;;;;7.53;2.10;;;;;;;;;;5017098;28;20459;-85
2024/01/27 12:04:51;;;;;;;9.20;2.50;;;;;;;;;;5003599;28;20042;-85
2024/01/27 12:07:20;;;;;;;8.45;2.40;;;;;;;;;;5003408;28;20034;-86
2024/01/27 12:09:48;;;;;;;9.15;2.10;;;;;;;;;;5001479;28;20035;-84
2024/01/27 12:12:14;;;;;;;8.60;2.38;;;;;;;;;;5002273;28;20026;-85
2024/01/27 12:14:41;;;;;;;8.90;2.33;;;;;;;;;;5004107;28;20038;-84
2024/01/27 12:17:10;;;;;;;9.98;2.40;;;;;;;;;;5005159;28;20038;-84
2024/01/27 12:19:36;;;;;;;7.78;2.47;;;;;;;;;;4996876;28;20041;-84
2024/01/27 12:22:03;;;;;;;11.25;2.30;;;;;;;;;;5006169;28;20034;-85
2024/01/27 12:24:29;;;;;;;8.15;2.15;;;;;;;;;;5007437;28;20034;-85
2024/01/27 12:26:57;;;;;;;7.80;2.25;;;;;;;;;;5003786;28;20034;-84
2024/01/27 12:29:23;;;;;;;8.80;2.55;;;;;;;;;;5007745;28;20030;-84
2024/01/27 12:31:49;;;;;;;6.82;2.70;;;;;;;;;;5007357;28;20046;-85
2024/01/27 12:34:15;;;;;;;6.82;2.42;;;;;;;;;;5007789;28;20050;-83
2024/01/27 12:36:43;;;;;;;9.63;2.88;;;;;;;;;;5007865;28;20098;-83
2024/01/27 12:39:09;;;;;;;8.35;2.40;;;;;;;;;;5006703;28;20121;-85
2024/01/27 12:41:35;;;;;;;9.88;2.70;;;;;;;;;;5007294;28;20042;-86
2024/01/27 12:44:01;;;;;;;8.57;2.35;;;;;;;;;;5007630;28;20018;-85
2024/01/27 12:46:31;;;;;;;14.02;2.67;;;;;;;;;;5006492;28;20043;-86
2024/01/27 12:48:56;;;;;;;10.25;2.53;;;;;;;;;;5008811;28;20014;-85
2024/01/27 12:51:22;;;;;;;8.85;2.35;;;;;;;;;;5009460;28;20094;-86
2024/01/27 12:53:47;;;;;;;6.43;2.60;;;;;;;;;;5007995;28;20098;-85
2024/01/27 12:56:15;;;;;;;8.80;2.45;;;;;;;;;;5009943;28;20037;-84
2024/01/27 12:58:41;;;;;;;8.50;2.38;;;;;;;;;;5010313;28;20031;-86
2024/01/27 13:01:08;;;;;;;8.57;2.25;;;;;;;;;;5010543;28;20060;-84
2024/01/27 13:03:34;;;;;;;8.57;2.60;;;;;;;;;;5018826;28;20080;-85
2024/01/27 13:06:00;;;;;;;8.52;2.28;;;;;;;;;;5010263;28;20035;-86
2024/01/27 13:08:26;;;;;;;6.22;2.40;;;;;;;;;;5004554;28;20030;-87
2024/01/27 13:10:51;;;;;;;6.85;2.20;;;;;;;;;;4990480;28;20038;-85
2024/01/27 13:13:17;;;;;;;8.40;2.28;;;;;;;;;;5007134;28;20435;-86
2024/01/27 13:15:43;;;;;;;6.82;2.10;;;;;;;;;;5007939;28;20061;-85
2024/01/27 13:18:13;;;;;;;8.77;2.40;;;;;;;;;;5010014;28;20058;-86
2024/01/27 13:20:40;;;;;;;4.30;2.10;;;;;;;;;;5008215;28;20046;-85
2024/01/27 13:23:06;;;;;;;8.65;2.40;;;;;;;;;;5007879;28;20492;-84
2024/01/27 13:25:31;;;;;;;8.60;2.83;;;;;;;;;;5008507;28;20118;-85
2024/01/27 13:27:57;;;;;;;6.38;2.50;;;;;;;;;;5006319;28;20008;-85
2024/01/27 13:30:23;;;;;;;7.00;2.30;;;;;;;;;;5006557;28;20471;-85
2024/01/27 13:32:49;;;;;;;7.10;2.40;;;;;;;;;;5007506;28;20058;-84
2024/01/27 13:35:14;;;;;;;5.93;2.13;;;;;;;;;;5010389;28;20037;-84
2024/01/27 13:37:40;;;;;;;6.18;2.20;;;;;;;;;;5014034;28;20045;-84
2024/01/27 13:40:09;;;;;;;8.07;2.30;;;;;;;;;;5007982;28;20634;-85
2024/01/27 13:42:35;;;;;;;8.00;2.30;;;;;;;;;;5008702;28;20034;-85
2024/01/27 13:45:01;;;;;;;6.70;2.50;;;;;;;;;;5004792;28;20069;-85
2024/01/27 13:47:27;;;;;;;7.63;2.40;;;;;;;;;;5007921;28;20034;-86
2024/01/27 13:49:52;;;;;;;6.05;2.13;;;;;;;;;;5005539;28;20035;-85
2024/01/27 13:52:18;;;;;;;7.72;2.30;;;;;;;;;;5005859;28;20023;-84
2024/01/27 13:54:43;;;;;;;5.55;1.92;;;;;;;;;;5009077;28;20065;-84
2024/01/27 13:57:10;;;;;;;6.70;2.17;;;;;;;;;;5008627;28;20431;-84
2024/01/27 13:59:36;;;;;;;7.53;2.22;;;;;;;;;;5005329;28;20034;-85
2024/01/27 14:02:01;;;;;;;8.57;2.33;;;;;;;;;;5001966;28;20034;-84
2024/01/27 14:04:27;;;;;;;6.80;2.10;;;;;;;;;;5000152;28;20387;-85
2024/01/27 14:06:53;;;;;;;10.25;2.17;;;;;;;;;;5000333;28;20084;-85
2024/01/27 14:09:21;;;;;;;7.10;2.40;;;;;;;;;;5000825;28;20026;-85
2024/01/27 14:11:46;;;;;;;8.82;2.10;;;;;;;;;;4997433;28;20090;-83
2024/01/27 14:14:12;;;;;;;6.15;2.30;;;;;;;;;;5001948;28;20054;-85
2024/01/27 14:16:37;;;;;;;6.13;2.00;;;;;;;;;;4999136;28;20113;-84
2024/01/27 14:19:03;;;;;;;5.50;1.98;;;;;;;;;;5001480;28;20057;-84
2024/01/27 14:21:28;;;;;;;9.32;2.45;;;;;;;;;;5001831;28;20101;-84
2024/01/27 14:24:00;;;;;;;5.03;2.00;;;;;;;;;;4998974;28;20030;-85
2024/01/27 14:26:29;;;;;;;7.95;2.20;;;;;;;;;;4998030;28;20104;-85
2024/01/27 14:28:55;;;;;;;5.00;1.83;;;;;;;;;;4998348;28;20113;-86
2024/01/27 14:31:21;;;;;;;8.18;2.80;;;;;;;;;;4998419;28;20058;-83
2024/01/27 14:33:46;;;;;;;7.85;2.20;;;;;;;;;;4998332;28;20061;-83